createdAt,value
2019-04-29T00:00:54.469Z,3.83
2019-04-29T00:03:23.265Z,3.87
2019-04-29T00:05:52.053Z,3.97
2019-04-29T00:08:22.906Z,3.87
2019-04-29T00:10:51.846Z,4.17
2019-04-29T00:13:20.686Z,3.93
2019-04-29T00:16:05.169Z,3.43
2019-04-29T00:18:51.757Z,3.57
2019-04-29T00:21:21.223Z,3.50
2019-04-29T00:24:02.919Z,3.37
2019-04-29T00:26:20.570Z,3.53
2019-04-29T00:28:50.523Z,3.43
2019-04-29T00:31:19.654Z,3.70
2019-04-29T00:33:48.446Z,3.23
2019-04-29T00:36:18.882Z,3.67
2019-04-29T00:39:11.678Z,4.37
2019-04-29T00:42:05.602Z,4.03
2019-04-29T00:44:44.882Z,3.03
2019-04-29T00:47:13.757Z,3.40
2019-04-29T00:49:44.718Z,3.07
2019-04-29T00:52:13.914Z,4.10
2019-04-29T00:54:55.182Z,4.40
2019-04-29T00:57:24.098Z,3.40
2019-04-29T00:59:52.905Z,3.63
2019-04-29T01:02:21.780Z,3.30
2019-04-29T01:04:51.262Z,4.80
2019-04-29T01:07:20.050Z,3.80
2019-04-29T01:09:50.129Z,4.23
2019-04-29T01:12:19.008Z,3.97
2019-04-29T01:14:47.958Z,3.33
2019-04-29T01:17:16.939Z,3.90
2019-04-29T01:19:45.992Z,3.63
2019-04-29T01:22:14.885Z,3.50
2019-04-29T01:24:43.866Z,2.93
2019-04-29T01:27:20.781Z,4.50
2019-04-29T01:29:49.669Z,4.57
2019-04-29T01:32:18.575Z,3.17
2019-04-29T01:34:53.146Z,4.83
2019-04-29T01:37:33.986Z,3.70
2019-04-29T01:40:15.362Z,4.67
2019-04-29T01:42:44.875Z,3.23
2019-04-29T01:45:13.773Z,3.83
2019-04-29T01:47:42.593Z,3.70
2019-04-29T01:50:11.467Z,7.00
2019-04-29T01:52:40.270Z,3.50
2019-04-29T01:55:09.078Z,3.10
2019-04-29T01:57:39.242Z,3.43
2019-04-29T02:00:12.315Z,3.70
2019-04-29T02:02:40.275Z,4.17
2019-04-29T02:05:09.158Z,3.60
2019-04-29T02:07:38.025Z,5.60
2019-04-29T02:10:14.106Z,4.10
2019-04-29T02:12:42.906Z,4.57
2019-04-29T02:15:11.828Z,4.07
2019-04-29T02:17:40.703Z,4.10
2019-04-29T02:20:09.530Z,3.93
2019-04-29T02:22:53.391Z,4.40
2019-04-29T02:25:53.060Z,4.20
2019-04-29T02:28:21.957Z,3.80
2019-04-29T02:30:52.175Z,3.83
2019-04-29T02:33:21.108Z,4.47
2019-04-29T02:35:50.296Z,4.23
2019-04-29T02:38:56.184Z,3.70
2019-04-29T02:41:34.405Z,4.27
2019-04-29T02:44:05.337Z,4.73
2019-04-29T02:46:34.300Z,4.70
2019-04-29T02:49:03.196Z,7.87
2019-04-29T02:51:50.975Z,6.03
2019-04-29T02:54:19.878Z,4.40
2019-04-29T02:56:55.385Z,4.50
2019-04-29T02:59:29.615Z,5.80
2019-04-29T03:02:23.123Z,6.93
2019-04-29T03:05:09.956Z,4.30
2019-04-29T03:07:38.874Z,4.87
2019-04-29T03:10:07.832Z,5.30
2019-04-29T03:12:37.723Z,5.20
2019-04-29T03:15:06.753Z,4.70
2019-04-29T03:17:35.613Z,6.00
2019-04-29T03:20:29.496Z,5.00
2019-04-29T03:23:08.953Z,4.93
2019-04-29T03:25:37.907Z,4.87
2019-04-29T03:28:08.860Z,6.60
2019-04-29T03:30:57.027Z,6.10
2019-04-29T03:33:25.961Z,5.27
2019-04-29T03:35:54.927Z,6.70
2019-04-29T03:38:23.831Z,5.37
2019-04-29T03:40:52.720Z,5.33
2019-04-29T03:43:21.727Z,4.43
2019-04-29T03:45:50.625Z,5.77
2019-04-29T03:48:19.592Z,4.97
2019-04-29T03:50:56.530Z,4.77
2019-04-29T03:53:28.492Z,4.70
2019-04-29T03:55:56.976Z,5.03
2019-04-29T03:58:26.128Z,5.33
2019-04-29T04:01:23.307Z,4.23
2019-04-29T04:03:59.588Z,4.37
2019-04-29T04:06:48.427Z,5.60
2019-04-29T04:09:19.904Z,8.53
2019-04-29T04:11:49.072Z,5.37
2019-04-29T04:14:17.869Z,5.30
2019-04-29T04:17:20.007Z,6.87
2019-04-29T04:19:46.999Z,6.47
2019-04-29T04:22:15.891Z,6.63
2019-04-29T04:24:44.778Z,4.90
2019-04-29T04:27:13.683Z,4.90
2019-04-29T04:29:42.568Z,5.03
2019-04-29T04:32:11.476Z,5.50
2019-04-29T04:34:40.508Z,5.77
2019-04-29T04:37:09.320Z,6.70
2019-04-29T04:39:39.878Z,5.50
2019-04-29T04:42:11.116Z,6.43
2019-04-29T04:44:49.743Z,7.73
2019-04-29T04:47:21.840Z,5.70
2019-04-29T04:49:50.767Z,5.17
2019-04-29T04:52:19.723Z,5.87
2019-04-29T04:54:50.657Z,5.00
2019-04-29T04:57:19.523Z,6.70
2019-04-29T04:59:48.358Z,5.57
2019-04-29T05:02:17.334Z,7.47
2019-04-29T05:04:50.977Z,5.50
2019-04-29T05:07:19.831Z,5.67
2019-04-29T05:09:48.630Z,5.60
2019-04-29T05:12:17.566Z,4.07
2019-04-29T05:14:46.466Z,8.80
2019-04-29T05:17:15.368Z,6.40
2019-04-29T05:19:44.192Z,5.00
2019-04-29T05:22:13.071Z,6.77
2019-04-29T05:24:41.992Z,5.53
2019-04-29T05:27:10.869Z,5.20
2019-04-29T05:29:39.840Z,5.50
2019-04-29T05:32:08.782Z,5.03
2019-04-29T05:34:41.674Z,4.60
2019-04-29T05:37:25.789Z,5.47
2019-04-29T05:39:54.763Z,4.40
2019-04-29T05:42:23.666Z,5.20
2019-04-29T05:45:14.582Z,7.20
2019-04-29T05:47:46.994Z,7.50
2019-04-29T05:50:47.605Z,4.37
2019-04-29T05:53:21.760Z,6.77
2019-04-29T05:55:52.551Z,4.90
2019-04-29T05:58:21.258Z,6.07
2019-04-29T06:00:56.051Z,9.67
2019-04-29T06:03:24.838Z,4.90
2019-04-29T06:05:53.794Z,5.60
2019-04-29T06:08:22.669Z,6.33
2019-04-29T06:10:51.686Z,6.50
2019-04-29T06:13:20.511Z,5.57
2019-04-29T06:15:49.366Z,6.10
2019-04-29T06:18:22.119Z,5.83
2019-04-29T06:20:48.786Z,4.20
2019-04-29T06:23:18.965Z,6.13
2019-04-29T06:25:48.230Z,4.43
2019-04-29T06:28:17.040Z,5.70
2019-04-29T06:30:50.164Z,5.50
2019-04-29T06:33:16.431Z,7.20
2019-04-29T06:35:47.427Z,7.07
2019-04-29T06:38:15.864Z,5.50
2019-04-29T06:40:50.717Z,4.30
2019-04-29T06:43:19.518Z,4.70
2019-04-29T06:45:48.542Z,5.43
2019-04-29T06:48:17.348Z,5.57
2019-04-29T06:50:46.219Z,6.83
2019-04-29T06:53:16.502Z,4.83
2019-04-29T06:55:45.704Z,5.73
2019-04-29T06:58:14.573Z,6.70
2019-04-29T07:00:43.474Z,8.90
2019-04-29T07:03:12.544Z,7.30
2019-04-29T07:05:41.430Z,5.17
2019-04-29T07:08:10.301Z,5.50
2019-04-29T07:10:39.118Z,9.10
2019-04-29T07:13:07.935Z,5.57
2019-04-29T07:15:36.747Z,6.20
2019-04-29T07:18:08.754Z,6.53
2019-04-29T07:20:38.806Z,5.83
2019-04-29T07:23:07.991Z,5.83
2019-04-29T07:25:36.871Z,5.67
2019-04-29T07:28:05.676Z,5.27
2019-04-29T07:30:39.242Z,5.23
2019-04-29T07:33:06.262Z,7.73
2019-04-29T07:35:42.898Z,8.07
2019-04-29T07:38:09.950Z,4.90
2019-04-29T07:40:43.366Z,6.33
2019-04-29T07:43:10.629Z,5.33
2019-04-29T07:46:10.804Z,7.83
2019-04-29T07:48:42.045Z,5.87
2019-04-29T07:51:10.585Z,5.30
2019-04-29T07:53:45.048Z,5.87
2019-04-29T07:56:09.928Z,7.50
2019-04-29T07:58:38.749Z,5.37
2019-04-29T08:01:07.976Z,6.93
2019-04-29T08:03:36.931Z,9.23
2019-04-29T08:06:05.826Z,7.13
2019-04-29T08:08:34.732Z,6.03
2019-04-29T08:11:03.763Z,5.73
2019-04-29T08:13:32.607Z,4.77
2019-04-29T08:16:01.463Z,5.50
2019-04-29T08:18:30.276Z,6.97
2019-04-29T08:20:59.082Z,7.43
2019-04-29T08:23:28.219Z,5.50
2019-04-29T08:26:01.938Z,11.93
2019-04-29T08:28:27.637Z,4.60
2019-04-29T08:30:57.384Z,5.50
2019-04-29T08:33:27.250Z,6.27
2019-04-29T08:35:56.053Z,6.27
2019-04-29T08:38:24.960Z,6.57
2019-04-29T08:40:53.878Z,5.13
2019-04-29T08:43:41.630Z,5.40
2019-04-29T08:46:13.371Z,6.27
2019-04-29T08:48:42.263Z,4.87
2019-04-29T08:51:11.058Z,7.33
2019-04-29T08:53:40.005Z,4.77
2019-04-29T08:56:12.096Z,5.17
2019-04-29T08:58:44.302Z,5.70
2019-04-29T09:01:11.793Z,4.90
2019-04-29T09:03:41.156Z,6.70
2019-04-29T09:06:10.952Z,5.77
2019-04-29T09:08:54.584Z,6.70
2019-04-29T09:11:15.458Z,5.00
2019-04-29T09:13:44.443Z,6.43
2019-04-29T09:16:13.334Z,6.73
2019-04-29T09:18:42.247Z,5.50
2019-04-29T09:21:11.116Z,6.43
2019-04-29T09:23:39.901Z,5.90
2019-04-29T09:26:18.679Z,5.13
2019-04-29T09:28:49.819Z,6.33
2019-04-29T09:31:19.182Z,6.60
2019-04-29T09:33:49.112Z,7.07
2019-04-29T09:36:18.669Z,5.53
2019-04-29T09:38:47.635Z,4.60
2019-04-29T09:41:30.485Z,4.00
2019-04-29T09:44:15.003Z,6.10
2019-04-29T09:46:43.934Z,6.40
2019-04-29T09:49:12.823Z,5.20
2019-04-29T09:51:41.626Z,5.50
2019-04-29T09:54:14.685Z,4.40
2019-04-29T09:56:41.090Z,4.53
2019-04-29T09:59:26.664Z,4.77
2019-04-29T10:02:05.386Z,4.80
2019-04-29T10:04:55.925Z,4.10
2019-04-29T10:07:13.922Z,6.50
2019-04-29T10:09:56.433Z,7.87
2019-04-29T10:12:15.080Z,4.50
2019-04-29T10:14:44.028Z,4.43
2019-04-29T10:17:32.327Z,4.90
2019-04-29T10:20:11.815Z,3.73
2019-04-29T10:22:40.701Z,4.07
2019-04-29T10:25:10.127Z,4.50
2019-04-29T10:27:41.454Z,5.30
2019-04-29T10:30:10.990Z,4.10
2019-04-29T10:32:42.479Z,4.47
2019-04-29T10:35:10.951Z,4.90
2019-04-29T10:37:39.751Z,4.57
2019-04-29T10:40:22.636Z,4.73
2019-04-29T10:43:25.911Z,4.60
2019-04-29T10:46:29.022Z,4.50
2019-04-29T10:49:05.260Z,4.70
2019-04-29T10:51:34.375Z,4.70
2019-04-29T10:54:03.179Z,4.87
2019-04-29T10:56:35.386Z,3.80
2019-04-29T10:59:04.580Z,3.73
2019-04-29T11:02:32.606Z,5.03
2019-04-29T11:05:26.282Z,4.13
2019-04-29T11:08:02.562Z,3.87
2019-04-29T11:10:33.067Z,3.80
2019-04-29T11:13:01.879Z,4.27
2019-04-29T11:15:34.138Z,3.50
2019-04-29T11:18:03.952Z,4.33
2019-04-29T11:20:33.438Z,4.17
2019-04-29T11:23:20.587Z,3.40
2019-04-29T11:26:09.572Z,3.47
2019-04-29T11:28:38.099Z,3.40
2019-04-29T11:31:09.836Z,3.70
2019-04-29T11:33:44.911Z,3.77
2019-04-29T11:36:14.880Z,3.40
2019-04-29T11:38:43.817Z,4.00
2019-04-29T11:41:19.563Z,3.50
2019-04-29T11:43:46.764Z,4.33
2019-04-29T11:46:15.562Z,8.63
2019-04-29T11:48:45.878Z,4.10
2019-04-29T11:51:27.178Z,3.03
2019-04-29T11:54:18.019Z,3.63
2019-04-29T11:56:51.241Z,4.97
2019-04-29T11:59:39.199Z,3.67
2019-04-29T12:02:45.413Z,2.70
2019-04-29T12:05:19.571Z,3.60
2019-04-29T12:07:48.439Z,3.00
2019-04-29T12:10:20.919Z,3.37
2019-04-29T12:13:12.623Z,3.07
2019-04-29T12:16:03.270Z,2.97
2019-04-29T12:18:38.331Z,2.50
2019-04-29T12:21:18.321Z,3.00
2019-04-29T12:23:47.661Z,2.60
2019-04-29T12:26:18.414Z,2.63
2019-04-29T12:28:47.222Z,2.77
2019-04-29T12:31:22.531Z,2.93
2019-04-29T12:33:57.618Z,3.30
2019-04-29T12:36:36.704Z,2.60
2019-04-29T12:39:42.339Z,2.60
2019-04-29T12:42:13.343Z,2.77
2019-04-29T12:44:49.123Z,2.70
2019-04-29T12:47:26.729Z,2.50
2019-04-29T12:49:55.066Z,2.57
2019-04-29T12:52:24.308Z,2.80
2019-04-29T12:54:53.146Z,2.53
2019-04-29T12:57:23.537Z,2.43
2019-04-29T12:59:54.579Z,2.83
2019-04-29T13:02:39.527Z,2.40
2019-04-29T13:05:14.014Z,2.90
2019-04-29T13:08:07.961Z,2.53
2019-04-29T13:10:48.736Z,5.03
2019-04-29T13:13:20.280Z,2.50
2019-04-29T13:15:59.311Z,2.30
2019-04-29T13:18:42.099Z,3.73
2019-04-29T13:21:11.003Z,2.23
2019-04-29T13:23:53.597Z,2.13
2019-04-29T13:26:10.570Z,2.07
2019-04-29T13:28:58.498Z,2.23
2019-04-29T13:31:10.040Z,2.20
2019-04-29T13:33:39.009Z,2.63
2019-04-29T13:36:08.650Z,2.00
2019-04-29T13:38:37.482Z,2.73
2019-04-29T13:41:13.475Z,2.57
2019-04-29T13:43:37.061Z,1.80
2019-04-29T13:46:22.446Z,3.10
2019-04-29T13:49:28.374Z,2.70
2019-04-29T13:51:58.358Z,1.70
2019-04-29T13:54:27.247Z,2.13
2019-04-29T13:57:01.331Z,2.10
2019-04-29T13:59:36.598Z,2.10
2019-04-29T14:02:16.581Z,6.07
2019-04-29T14:04:48.596Z,1.83
2019-04-29T14:07:18.275Z,2.10
2019-04-29T14:09:48.106Z,1.90
2019-04-29T14:12:47.003Z,2.70
2019-04-29T14:14:47.591Z,2.00
2019-04-29T14:17:25.894Z,1.90
2019-04-29T14:19:47.012Z,1.97
2019-04-29T14:22:22.564Z,2.20
2019-04-29T14:24:47.089Z,2.03
2019-04-29T14:27:24.682Z,1.90
2019-04-29T14:29:46.689Z,1.90
2019-04-29T14:32:18.304Z,1.43
2019-04-29T14:34:58.522Z,1.67
2019-04-29T14:37:27.464Z,1.60
2019-04-29T14:39:56.608Z,1.90
2019-04-29T14:42:57.094Z,3.20
2019-04-29T14:45:32.887Z,1.67
2019-04-29T14:48:19.763Z,1.87
2019-04-29T14:50:49.641Z,1.47
2019-04-29T14:53:24.396Z,2.00
2019-04-29T14:55:50.827Z,1.60
2019-04-29T14:58:19.660Z,1.60
2019-04-29T15:01:16.225Z,1.50
2019-04-29T15:03:56.962Z,1.50
2019-04-29T15:06:28.827Z,1.63
2019-04-29T15:08:56.609Z,1.80
2019-04-29T15:11:32.031Z,1.40
2019-04-29T15:14:26.702Z,1.57
2019-04-29T15:17:03.303Z,1.67
2019-04-29T15:19:55.147Z,2.73
2019-04-29T15:22:24.635Z,1.50
2019-04-29T15:24:53.941Z,1.20
2019-04-29T15:27:22.759Z,1.47
2019-04-29T15:29:51.592Z,1.40
2019-04-29T15:32:22.004Z,1.70
2019-04-29T15:34:51.083Z,1.60
2019-04-29T15:37:20.046Z,4.23
2019-04-29T15:39:49.005Z,1.50
2019-04-29T15:42:17.949Z,1.10
2019-04-29T15:44:46.892Z,1.50
2019-04-29T15:47:15.697Z,1.30
2019-04-29T15:49:44.646Z,1.13
2019-04-29T15:52:15.988Z,1.77
2019-04-29T15:54:45.951Z,1.90
2019-04-29T15:59:48.803Z,1.73
2019-04-29T16:02:15.934Z,1.37
2019-04-29T16:04:51.552Z,2.00
2019-04-29T16:07:38.243Z,1.47
2019-04-29T16:10:45.241Z,1.20
2019-04-29T16:13:14.209Z,1.20
2019-04-29T16:15:43.211Z,1.20
2019-04-29T16:18:14.845Z,1.10
2019-04-29T16:20:42.883Z,1.13
2019-04-29T16:23:11.702Z,1.23
2019-04-29T16:25:41.066Z,1.30
2019-04-29T16:28:11.143Z,1.30
2019-04-29T16:30:40.060Z,1.07
2019-04-29T16:33:13.933Z,1.50
2019-04-29T16:35:39.479Z,1.50
2019-04-29T16:38:11.326Z,1.00
2019-04-29T16:40:43.367Z,1.70
2019-04-29T16:43:27.927Z,1.53
2019-04-29T16:46:23.517Z,1.27
2019-04-29T16:48:52.157Z,0.90
2019-04-29T16:51:39.164Z,1.30
2019-04-29T16:54:12.680Z,1.07
2019-04-29T16:56:45.356Z,0.97
2019-04-29T16:59:14.382Z,1.23
2019-04-29T17:01:43.283Z,2.03
2019-04-29T17:04:12.086Z,1.70
2019-04-29T17:06:43.425Z,1.00
2019-04-29T17:09:24.066Z,0.93
2019-04-29T17:11:58.290Z,1.40
2019-04-29T17:14:27.065Z,1.63
2019-04-29T17:16:56.026Z,2.20
2019-04-29T17:19:44.147Z,5.20
2019-04-29T17:22:25.586Z,1.30
2019-04-29T17:24:44.261Z,1.07
2019-04-29T17:27:47.455Z,1.20
2019-04-29T17:30:38.181Z,1.13
2019-04-29T17:33:12.145Z,1.13
2019-04-29T17:35:17.103Z,1.30
2019-04-29T17:35:46.989Z,0.90
2019-04-29T17:38:13.234Z,1.47
2019-04-29T17:40:50.589Z,1.27
2019-04-29T17:43:19.579Z,1.17
2019-04-29T17:46:19.746Z,2.80
2019-04-29T17:48:58.126Z,1.50
2019-04-29T17:51:29.361Z,1.30
2019-04-29T17:54:01.243Z,1.20
2019-04-29T17:56:47.743Z,1.10
2019-04-29T17:59:31.200Z,1.53
2019-04-29T18:02:21.764Z,1.37
2019-04-29T18:05:03.301Z,1.23
2019-04-29T18:07:40.574Z,1.50
2019-04-29T18:10:31.233Z,1.40
2019-04-29T18:13:00.046Z,1.50
2019-04-29T18:15:40.693Z,1.40
2019-04-29T18:18:05.348Z,1.30
2019-04-29T18:21:03.130Z,1.50
2019-04-29T18:23:44.675Z,1.80
2019-04-29T18:26:26.687Z,1.50
2019-04-29T18:29:03.178Z,1.50
2019-04-29T18:31:30.693Z,2.00
2019-04-29T18:33:59.289Z,1.60
2019-04-29T18:36:28.422Z,2.23
2019-04-29T18:38:57.247Z,1.73
2019-04-29T18:41:28.690Z,1.70
2019-04-29T18:44:02.881Z,1.80
2019-04-29T18:46:27.874Z,1.63
2019-04-29T18:49:02.987Z,1.57
2019-04-29T18:51:28.802Z,2.00
2019-04-29T18:53:57.880Z,2.20
2019-04-29T18:56:26.783Z,1.80
2019-04-29T18:58:55.709Z,1.73
2019-04-29T19:01:28.994Z,1.43
2019-04-29T19:04:17.376Z,1.90
2019-04-29T19:06:45.064Z,3.03
2019-04-29T19:09:20.010Z,2.83
2019-04-29T19:11:46.308Z,1.90
2019-04-29T19:14:15.554Z,1.77
2019-04-29T19:16:45.877Z,1.80
2019-04-29T19:19:15.422Z,2.30
2019-04-29T19:21:45.492Z,2.13
2019-04-29T19:24:16.167Z,2.13
2019-04-29T19:26:47.008Z,2.30
2019-04-29T19:29:15.837Z,1.70
2019-04-29T19:31:49.398Z,2.07
2019-04-29T19:34:18.663Z,2.30
2019-04-29T19:36:55.741Z,2.83
2019-04-29T19:39:25.150Z,2.30
2019-04-29T19:41:52.702Z,2.47
2019-04-29T19:44:21.666Z,2.30
2019-04-29T19:46:50.630Z,2.50
2019-04-29T19:49:19.528Z,2.20
2019-04-29T19:51:48.434Z,3.10
2019-04-29T19:54:23.768Z,2.40
2019-04-29T19:57:07.617Z,4.40
2019-04-29T19:59:37.418Z,2.50
2019-04-29T20:02:10.294Z,3.97
2019-04-29T20:04:45.887Z,2.13
2019-04-29T20:07:17.367Z,2.70
2019-04-29T20:09:48.179Z,2.90
2019-04-29T20:12:17.632Z,2.93
2019-04-29T20:14:47.818Z,2.90
2019-04-29T20:17:38.961Z,3.03
2019-04-29T20:20:21.009Z,2.70
2019-04-29T20:22:51.279Z,4.67
2019-04-29T20:25:29.239Z,2.70
2019-04-29T20:28:02.946Z,2.87
2019-04-29T20:30:21.850Z,2.50
2019-04-29T20:32:51.117Z,2.87
2019-04-29T20:35:20.390Z,2.97
2019-04-29T20:37:55.726Z,3.00
2019-04-29T20:40:20.060Z,3.47
2019-04-29T20:42:49.553Z,3.20
2019-04-29T20:45:20.195Z,2.70
2019-04-29T20:47:49.461Z,4.17
2019-04-29T20:50:18.667Z,3.20
2019-04-29T20:53:02.806Z,3.20
2019-04-29T20:55:36.342Z,3.00
2019-04-29T20:58:04.484Z,3.03
2019-04-29T21:00:35.385Z,4.30
2019-04-29T21:03:09.502Z,3.27
2019-04-29T21:05:46.884Z,3.23
2019-04-29T21:08:14.665Z,3.13
2019-04-29T21:10:37.825Z,3.40
2019-04-29T21:13:30.673Z,3.77
2019-04-29T21:16:16.323Z,3.73
2019-04-29T21:18:52.650Z,3.40
2019-04-29T21:21:15.646Z,3.20
2019-04-29T21:23:45.719Z,3.53
2019-04-29T21:26:15.853Z,4.03
2019-04-29T21:28:47.030Z,4.13
2019-04-29T21:31:16.645Z,5.40
2019-04-29T21:33:46.256Z,4.27
2019-04-29T21:36:22.002Z,4.90
2019-04-29T21:39:06.280Z,4.10
2019-04-29T21:41:46.588Z,4.80
2019-04-29T21:44:15.387Z,4.00
2019-04-29T21:46:45.429Z,4.50
2019-04-29T21:49:15.612Z,4.43
2019-04-29T21:51:48.430Z,4.83
2019-04-29T21:54:15.755Z,4.80
2019-04-29T21:56:47.953Z,4.90
2019-04-29T21:59:15.763Z,8.43
2019-04-29T22:01:44.962Z,5.37
2019-04-29T22:04:13.940Z,5.10
2019-04-29T22:06:42.906Z,5.40
2019-04-29T22:09:12.845Z,4.90
2019-04-29T22:11:43.523Z,4.60
2019-04-29T22:14:14.140Z,5.30
2019-04-29T22:16:47.526Z,5.40
2019-04-29T22:19:14.926Z,5.60
2019-04-29T22:21:45.920Z,4.97
2019-04-29T22:24:15.082Z,5.60
2019-04-29T22:26:45.123Z,5.57
2019-04-29T22:29:14.094Z,5.53
2019-04-29T22:31:43.448Z,5.97
2019-04-29T22:34:15.231Z,4.93
2019-04-29T22:36:43.005Z,6.33
2019-04-29T22:39:11.940Z,5.37
2019-04-29T22:42:03.054Z,6.60
2019-04-29T22:44:32.118Z,6.13
2019-04-29T22:47:00.988Z,7.43
2019-04-29T22:49:29.891Z,6.07
2019-04-29T22:51:58.749Z,6.43
2019-04-29T22:54:27.550Z,6.30
2019-04-29T22:56:56.804Z,6.53
2019-04-29T22:59:27.597Z,5.50
2019-04-29T23:01:56.602Z,6.20
2019-04-29T23:04:25.573Z,5.60
2019-04-29T23:06:54.361Z,6.87
2019-04-29T23:09:23.182Z,6.60
2019-04-29T23:11:52.062Z,6.03
2019-04-29T23:14:20.942Z,6.60
2019-04-29T23:16:49.806Z,6.40
2019-04-29T23:19:19.394Z,6.53
2019-04-29T23:22:06.252Z,6.43
2019-04-29T23:24:55.703Z,6.30
2019-04-29T23:27:25.847Z,6.80
2019-04-29T23:29:54.995Z,6.80
2019-04-29T23:32:25.351Z,7.03
2019-04-29T23:34:55.016Z,6.90
2019-04-29T23:37:27.605Z,7.60
2019-04-29T23:39:55.804Z,7.00
2019-04-29T23:42:26.137Z,10.17
2019-04-29T23:45:20.892Z,8.20
2019-04-29T23:47:48.781Z,8.00
2019-04-29T23:50:18.663Z,7.77
2019-04-29T23:52:50.279Z,7.73
2019-04-29T23:55:20.452Z,8.07
2019-04-29T23:58:06.423Z,7.77
